Time;durP1;ratioP1;P1;durP2;ratioP2;P2;SDS_P1;SDS_P2;PMS_P1;PMS_P2;Temp;Humidity;BMP_temperature;BMP_pressure;BME280_temperature;BME280_humidity;BME280_pressure;Samples;Min_cycle;Max_cycle;Signal;HPM_P1;HPM_P2
2022/08/08 00:00:11;;;;;;;;;;;;;;;;;;5054885;28;19917;-87
2022/08/08 00:02:39;;;;;;;;;;;;;;;;;;5053408;28;19917;-90
2022/08/08 00:05:08;;;;;;;;;;;;;;;;;;5055028;28;19921;-86
2022/08/08 00:07:33;;;;;;;;;;;;;;;;;;5054709;28;19917;-85
2022/08/08 00:10:05;;;;;;;;;;;;;;;;;;5053984;28;19924;-85
2022/08/08 00:12:36;;;;;;;;;;;;;;;;;;5054716;28;19920;-84
2022/08/08 00:15:08;;;;;;;;;;;;;;;;;;5053401;28;19924;-84
2022/08/08 00:17:46;;;;;;;;;;;;;;;;;;5053306;28;19963;-84
2022/08/08 00:20:12;;;;;;;;;;;;;;;;;;5053258;28;19916;-85
2022/08/08 00:22:38;;;;;;;;;;;;;;;;;;5054397;28;19912;-84
2022/08/08 00:25:05;;;;;;;;;;;;;;;;;;5054562;28;20012;-87
2022/08/08 00:27:32;;;;;;;;;;;;;;;;;;5054025;28;20356;-85
2022/08/08 00:30:05;;;;;;;;;;;;;;;;;;5054476;28;19960;-84
2022/08/08 00:32:36;;;;;;;;;;;;;;;;;;5052783;28;19920;-85
2022/08/08 00:35:11;;;;;;;;;;;;;;;;;;5054320;28;19924;-85
2022/08/08 00:37:56;;;;;;;;;;;;;;;;;;5052812;28;19912;-85
2022/08/08 00:40:28;;;;;;;;;;;;;;;;;;5013186;28;19963;-85
2022/08/08 00:43:03;;;;;;;;;;;;;;;;;;5052799;28;19912;-85
2022/08/08 00:45:46;;;;;;;;;;;;;;;;;;5052789;28;19917;-85
2022/08/08 00:48:41;;;;;;;;;;;;;;;;;;5054170;28;19913;-85
2022/08/08 00:51:24;;;;;;;;;;;;;;;;;;4992760;28;19917;-85
2022/08/08 00:53:53;;;;;;;;;;;;;;;;;;4992885;28;19918;-85
2022/08/08 00:56:38;;;;;;;;;;;;;;;;;;4993043;28;20385;-85
2022/08/08 00:59:03;;;;;;;;;;;;;;;;;;4976343;28;20370;-86
2022/08/08 01:01:34;;;;;;;;;;;;;;;;;;4992582;28;19917;-86
2022/08/08 01:04:09;;;;;;;;;;;;;;;;;;4976187;28;19917;-84
2022/08/08 01:06:52;;;;;;;;;;;;;;;;;;4992543;28;20012;-85
2022/08/08 01:09:24;;;;;;;;;;;;;;;;;;4992786;28;19921;-84
2022/08/08 01:12:07;;;;;;;;;;;;;;;;;;4992444;28;19921;-85
2022/08/08 01:14:51;;;;;;;;;;;;;;;;;;4992424;28;19929;-88
2022/08/08 01:17:16;;;;;;;;;;;;;;;;;;4975953;28;20294;-86
2022/08/08 01:19:42;;;;;;;;;;;;;;;;;;4975965;28;19970;-83
2022/08/08 01:22:16;;;;;;;;;;;;;;;;;;4996125;28;19925;-86
2022/08/08 01:24:47;;;;;;;;;;;;;;;;;;4979884;28;19917;-85
2022/08/08 01:27:32;;;;;;;;;;;;;;;;;;5007387;28;19972;-86
2022/08/08 01:30:04;;;;;;;;;;;;;;;;;;5057602;28;19917;-86
2022/08/08 01:32:35;;;;;;;;;;;;;;;;;;5057619;28;19916;-85
2022/08/08 01:35:13;;;;;;;;;;;;;;;;;;5056280;28;19924;-88
2022/08/08 01:37:41;;;;;;;;;;;;;;;;;;5057380;28;19917;-86
2022/08/08 01:40:15;;;;;;;;;;;;;;;;;;5056342;28;19917;-85
2022/08/08 01:42:47;;;;;;;;;;;;;;;;;;5055999;28;19916;-85
2022/08/08 01:45:23;;;;;;;;;;;;;;;;;;5056055;28;19917;-85
2022/08/08 01:48:01;;;;;;;;;;;;;;;;;;5057398;28;19917;-85
2022/08/08 01:50:44;;;;;;;;;;;;;;;;;;5055815;28;19917;-85
2022/08/08 01:53:22;;;;;;;;;;;;;;;;;;5057213;28;20365;-85
2022/08/08 01:55:54;;;;;;;;;;;;;;;;;;5057394;28;19917;-85
2022/08/08 01:58:39;;;;;;;;;;;;;;;;;;5057272;28;19920;-85
2022/08/08 02:01:18;;;;;;;;;;;;;;;;;;5057005;28;20368;-87
2022/08/08 02:03:43;;;;;;;;;;;;;;;;;;5056900;28;19924;-86
2022/08/08 02:06:41;;;;;;;;;;;;;;;;;;5057185;28;19913;-85
2022/08/08 02:09:25;;;;;;;;;;;;;;;;;;5023233;28;20007;-85
2022/08/08 02:11:50;;;;;;;;;;;;;;;;;;5056817;28;20015;-87
2022/08/08 02:14:18;;;;;;;;;;;;;;;;;;5056960;28;19983;-86
2022/08/08 02:17:02;;;;;;;;;;;;;;;;;;5055462;28;20372;-86
2022/08/08 02:19:36;;;;;;;;;;;;;;;;;;5055318;28;19917;-85
2022/08/08 02:25:00;;;;;;;;;;;;;;;;;;5056780;28;19994;-86
2022/08/08 02:27:46;;;;;;;;;;;;;;;;;;5056419;28;19920;-86
2022/08/08 02:30:16;;;;;;;;;;;;;;;;;;5025396;28;19987;-86
2022/08/08 02:33:04;;;;;;;;;;;;;;;;;;5055535;28;19924;-87
2022/08/08 02:35:32;;;;;;;;;;;;;;;;;;5056429;28;19970;-88
2022/08/08 02:38:13;;;;;;;;;;;;;;;;;;5055843;28;19917;-86
2022/08/08 02:40:53;;;;;;;;;;;;;;;;;;5056274;28;20004;-88
2022/08/08 02:43:31;;;;;;;;;;;;;;;;;;5056194;28;19917;-85
2022/08/08 02:46:06;;;;;;;;;;;;;;;;;;5056217;28;20249;-86
2022/08/08 02:48:31;;;;;;;;;;;;;;;;;;5056042;28;20432;-89
2022/08/08 02:51:15;;;;;;;;;;;;;;;;;;5056051;28;20010;-87
2022/08/08 02:53:40;;;;;;;;;;;;;;;;;;5054792;28;19916;-87
2022/08/08 02:56:24;;;;;;;;;;;;;;;;;;5055918;28;20376;-85
2022/08/08 02:58:53;;;;;;;;;;;;;;;;;;5054786;28;19923;-89
2022/08/08 03:01:41;;;;;;;;;;;;;;;;;;5054429;28;20407;-85
2022/08/08 03:04:07;;;;;;;;;;;;;;;;;;5053868;28;19917;-86
2022/08/08 03:06:55;;;;;;;;;;;;;;;;;;5054512;28;19947;-86
2022/08/08 03:09:39;;;;;;;;;;;;;;;;;;5056035;28;19916;-85
2022/08/08 03:12:07;;;;;;;;;;;;;;;;;;5055926;28;19925;-90
2022/08/08 03:14:52;;;;;;;;;;;;;;;;;;5076543;28;19928;-86
2022/08/08 03:17:24;;;;;;;;;;;;;;;;;;5076520;28;19921;-85
2022/08/08 03:20:12;;;;;;;;;;;;;;;;;;5044254;28;20199;-87
2022/08/08 03:22:43;;;;;;;;;;;;;;;;;;5058538;28;19916;-84
2022/08/08 03:25:09;;;;;;;;;;;;;;;;;;5055765;28;19917;-85
2022/08/08 03:27:40;;;;;;;;;;;;;;;;;;5055709;28;19932;-85
2022/08/08 03:30:10;;;;;;;;;;;;;;;;;;5055490;28;19921;-86
2022/08/08 03:35:25;;;;;;;;;;;;;;;;;;5055916;28;19924;-85
2022/08/08 03:37:50;;;;;;;;;;;;;;;;;;5053888;28;19960;-85
2022/08/08 03:40:17;;;;;;;;;;;;;;;;;;5055317;28;19917;-87
2022/08/08 03:42:42;;;;;;;;;;;;;;;;;;5054768;28;19913;-86
2022/08/08 03:45:12;;;;;;;;;;;;;;;;;;5053604;28;19921;-86
2022/08/08 03:47:37;;;;;;;;;;;;;;;;;;5050421;28;20308;-87
2022/08/08 03:50:03;;;;;;;;;;;;;;;;;;5035219;28;19921;-85
2022/08/08 03:52:30;;;;;;;;;;;;;;;;;;5034996;28;19917;-88
2022/08/08 03:54:55;;;;;;;;;;;;;;;;;;5035066;28;19987;-88
2022/08/08 03:57:20;;;;;;;;;;;;;;;;;;5035068;28;20399;-86
2022/08/08 03:59:46;;;;;;;;;;;;;;;;;;5034981;28;19964;-85
2022/08/08 04:02:15;;;;;;;;;;;;;;;;;;5053992;28;19920;-86
2022/08/08 04:04:41;;;;;;;;;;;;;;;;;;5053431;28;20015;-87
2022/08/08 04:07:06;;;;;;;;;;;;;;;;;;5054818;28;19955;-86
2022/08/08 04:09:31;;;;;;;;;;;;;;;;;;5053311;28;19916;-87
2022/08/08 04:11:58;;;;;;;;;;;;;;;;;;5055130;28;19920;-87
2022/08/08 04:14:24;;;;;;;;;;;;;;;;;;5053211;28;19917;-86
2022/08/08 04:16:49;;;;;;;;;;;;;;;;;;5054723;28;19963;-84
2022/08/08 04:19:15;;;;;;;;;;;;;;;;;;5054766;28;20338;-85
2022/08/08 04:21:40;;;;;;;;;;;;;;;;;;5053777;28;19917;-85
2022/08/08 04:24:05;;;;;;;;;;;;;;;;;;5054484;28;20361;-87
2022/08/08 04:26:31;;;;;;;;;;;;;;;;;;5054386;28;19917;-86
2022/08/08 04:28:56;;;;;;;;;;;;;;;;;;5054176;28;20372;-86
2022/08/08 04:31:22;;;;;;;;;;;;;;;;;;5054814;28;19916;-87
2022/08/08 04:33:47;;;;;;;;;;;;;;;;;;5054006;28;19917;-88
2022/08/08 04:36:12;;;;;;;;;;;;;;;;;;5054254;28;19917;-86
2022/08/08 04:38:38;;;;;;;;;;;;;;;;;;5054316;28;19917;-86
2022/08/08 04:41:04;;;;;;;;;;;;;;;;;;5054191;28;19921;-86
2022/08/08 04:43:29;;;;;;;;;;;;;;;;;;5052926;28;20276;-86
2022/08/08 04:45:55;;;;;;;;;;;;;;;;;;5054031;28;19921;-86
2022/08/08 04:48:20;;;;;;;;;;;;;;;;;;5054329;28;19916;-87
2022/08/08 04:50:46;;;;;;;;;;;;;;;;;;5056715;28;19971;-89
2022/08/08 04:53:11;;;;;;;;;;;;;;;;;;5054000;28;20361;-89
2022/08/08 04:55:36;;;;;;;;;;;;;;;;;;5052209;28;20357;-89
2022/08/08 04:58:02;;;;;;;;;;;;;;;;;;5052958;28;19917;-90
2022/08/08 05:00:27;;;;;;;;;;;;;;;;;;5052681;28;19917;-89
2022/08/08 05:02:53;;;;;;;;;;;;;;;;;;5052487;28;20384;-89
2022/08/08 05:05:18;;;;;;;;;;;;;;;;;;5045993;28;19917;-89
2022/08/08 05:07:45;;;;;;;;;;;;;;;;;;5033977;28;20273;-89
2022/08/08 05:10:10;;;;;;;;;;;;;;;;;;5053385;28;20392;-89
2022/08/08 05:12:37;;;;;;;;;;;;;;;;;;5053413;28;19924;-89
2022/08/08 05:15:03;;;;;;;;;;;;;;;;;;5052314;28;19917;-90
2022/08/08 05:17:28;;;;;;;;;;;;;;;;;;5052123;28;19943;-89
2022/08/08 05:19:53;;;;;;;;;;;;;;;;;;5053467;28;19917;-90
2022/08/08 05:22:19;;;;;;;;;;;;;;;;;;5053516;28;19940;-88
2022/08/08 05:24:44;;;;;;;;;;;;;;;;;;5053471;28;20016;-91
2022/08/08 05:27:10;;;;;;;;;;;;;;;;;;5042875;28;19990;-88
2022/08/08 05:29:36;;;;;;;;;;;;;;;;;;5033650;28;19923;-90
2022/08/08 05:32:02;;;;;;;;;;;;;;;;;;5032073;28;19992;-89
2022/08/08 05:34:35;;;;;;;;;;;;;;;;;;5033472;28;19924;-89
2022/08/08 05:37:01;;;;;;;;;;;;;;;;;;5049297;28;19917;-89
2022/08/08 05:39:33;;;;;;;;;;;;;;;;;;5073584;28;19952;-91
2022/08/08 05:41:59;;;;;;;;;;;;;;;;;;5073374;28;20357;-90
2022/08/08 05:44:25;;;;;;;;;;;;;;;;;;5062056;28;20020;-89
2022/08/08 05:46:54;;;;;;;;;;;;;;;;;;5044141;28;20349;-89
2022/08/08 05:49:20;;;;;;;;;;;;;;;;;;5035681;28;19932;-89
2022/08/08 05:51:46;;;;;;;;;;;;;;;;;;5044466;28;20261;-90
2022/08/08 05:54:12;;;;;;;;;;;;;;;;;;5035741;28;20364;-89
2022/08/08 05:56:38;;;;;;;;;;;;;;;;;;5048252;28;19921;-90
2022/08/08 05:59:06;;;;;;;;;;;;;;;;;;5044010;28;19921;-90
2022/08/08 06:01:32;;;;;;;;;;;;;;;;;;5039400;28;19929;-90
2022/08/08 06:04:01;;;;;;;;;;;;;;;;;;5038623;28;19956;-90
2022/08/08 06:06:31;;;;;;;;;;;;;;;;;;5038239;28;20307;-90
2022/08/08 06:09:03;;;;;;;;;;;;;;;;;;5047460;28;19925;-90
2022/08/08 06:11:31;;;;;;;;;;;;;;;;;;5046666;28;19917;-92
2022/08/08 06:13:57;;;;;;;;;;;;;;;;;;5057272;28;19917;-90
2022/08/08 06:16:23;;;;;;;;;;;;;;;;;;5044866;28;19925;-91
2022/08/08 06:18:49;;;;;;;;;;;;;;;;;;5050840;28;19963;-90
2022/08/08 06:21:15;;;;;;;;;;;;;;;;;;5056363;28;19983;-90
2022/08/08 06:23:41;;;;;;;;;;;;;;;;;;5055023;28;19963;-90
2022/08/08 06:26:08;;;;;;;;;;;;;;;;;;5054098;28;19925;-91
2022/08/08 06:28:42;;;;;;;;;;;;;;;;;;5044687;28;20000;-92
2022/08/08 06:31:08;;;;;;;;;;;;;;;;;;5050063;28;19921;-91
2022/08/08 06:33:37;;;;;;;;;;;;;;;;;;5051406;28;20016;-91
2022/08/08 06:36:03;;;;;;;;;;;;;;;;;;5036451;28;19917;-90
2022/08/08 06:38:32;;;;;;;;;;;;;;;;;;5053004;28;19916;-90
2022/08/08 06:41:02;;;;;;;;;;;;;;;;;;5062676;28;19921;-91
2022/08/08 06:43:33;;;;;;;;;;;;;;;;;;5048488;28;19924;-90
2022/08/08 06:45:58;;;;;;;;;;;;;;;;;;5056170;28;20375;-91
2022/08/08 06:48:24;;;;;;;;;;;;;;;;;;5054510;28;19979;-92
2022/08/08 06:50:50;;;;;;;;;;;;;;;;;;5054445;28;19920;-91
2022/08/08 06:53:16;;;;;;;;;;;;;;;;;;5054425;28;19991;-90
2022/08/08 06:55:42;;;;;;;;;;;;;;;;;;5054601;28;19939;-90
2022/08/08 06:58:07;;;;;;;;;;;;;;;;;;5054837;28;19916;-90
2022/08/08 07:00:35;;;;;;;;;;;;;;;;;;5055515;28;20372;-90
2022/08/08 07:03:01;;;;;;;;;;;;;;;;;;5056503;28;19923;-89
2022/08/08 07:05:28;;;;;;;;;;;;;;;;;;5051631;28;19979;-90
2022/08/08 07:08:04;;;;;;;;;;;;;;;;;;5038439;28;19976;-90
2022/08/08 07:10:32;;;;;;;;;;;;;;;;;;5055004;28;19923;-90
2022/08/08 07:13:05;;;;;;;;;;;;;;;;;;5074333;28;19916;-89
2022/08/08 07:15:41;;;;;;;;;;;;;;;;;;5075354;28;19925;-90
2022/08/08 07:18:08;;;;;;;;;;;;;;;;;;5065222;28;20376;-91
2022/08/08 07:20:38;;;;;;;;;;;;;;;;;;5055373;28;20015;-88
2022/08/08 07:23:10;;;;;;;;;;;;;;;;;;5054080;28;19923;-90
2022/08/08 07:25:40;;;;;;;;;;;;;;;;;;5046183;28;19924;-89
2022/08/08 07:28:08;;;;;;;;;;;;;;;;;;5054073;28;20014;-89
2022/08/08 07:30:36;;;;;;;;;;;;;;;;;;5045444;28;19921;-89
2022/08/08 07:33:02;;;;;;;;;;;;;;;;;;5054991;28;19921;-90
2022/08/08 07:35:28;;;;;;;;;;;;;;;;;;5053995;28;19924;-90
2022/08/08 07:37:55;;;;;;;;;;;;;;;;;;5053623;28;19917;-89
2022/08/08 07:40:20;;;;;;;;;;;;;;;;;;5053977;28;19939;-90
2022/08/08 07:42:46;;;;;;;;;;;;;;;;;;5051475;28;19921;-91
2022/08/08 07:45:12;;;;;;;;;;;;;;;;;;5052126;28;19917;-90
2022/08/08 07:47:37;;;;;;;;;;;;;;;;;;5054100;28;20015;-90
2022/08/08 07:50:03;;;;;;;;;;;;;;;;;;5054707;28;20352;-90
2022/08/08 07:52:29;;;;;;;;;;;;;;;;;;5053586;28;20300;-89
2022/08/08 07:54:55;;;;;;;;;;;;;;;;;;5053381;28;19936;-89
2022/08/08 07:57:39;;;;;;;;;;;;;;;;;;5051210;28;19921;-91
2022/08/08 08:00:06;;;;;;;;;;;;;;;;;;5044741;28;20437;-91
2022/08/08 08:02:52;;;;;;;;;;;;;;;;;;5053977;28;19920;-90
2022/08/08 08:05:25;;;;;;;;;;;;;;;;;;5039339;28;20372;-90
2022/08/08 08:08:02;;;;;;;;;;;;;;;;;;5053174;28;19917;-89
2022/08/08 08:10:28;;;;;;;;;;;;;;;;;;5053148;28;19917;-90
2022/08/08 08:12:58;;;;;;;;;;;;;;;;;;5054413;28;20266;-89
2022/08/08 08:15:24;;;;;;;;;;;;;;;;;;5054628;28;19924;-90
2022/08/08 08:17:52;;;;;;;;;;;;;;;;;;5054477;28;19917;-90
2022/08/08 08:20:19;;;;;;;;;;;;;;;;;;5053190;28;20289;-91
2022/08/08 08:22:45;;;;;;;;;;;;;;;;;;5054220;28;19975;-91
2022/08/08 08:25:10;;;;;;;;;;;;;;;;;;5054096;28;20416;-90
2022/08/08 08:27:35;;;;;;;;;;;;;;;;;;5052723;28;20304;-91
2022/08/08 08:30:01;;;;;;;;;;;;;;;;;;5052268;28;19917;-91
2022/08/08 08:32:27;;;;;;;;;;;;;;;;;;5052660;28;20004;-90
2022/08/08 08:34:52;;;;;;;;;;;;;;;;;;5052881;28;19917;-90
2022/08/08 08:37:18;;;;;;;;;;;;;;;;;;5054057;28;19987;-91
2022/08/08 08:39:44;;;;;;;;;;;;;;;;;;5052534;28;19917;-89
2022/08/08 08:42:11;;;;;;;;;;;;;;;;;;5054072;28;19963;-89
2022/08/08 08:44:36;;;;;;;;;;;;;;;;;;5052611;28;19913;-91
2022/08/08 08:47:01;;;;;;;;;;;;;;;;;;5052573;28;19917;-91
2022/08/08 08:49:27;;;;;;;;;;;;;;;;;;5054217;28;19920;-91
2022/08/08 08:51:54;;;;;;;;;;;;;;;;;;5052718;28;19925;-91
2022/08/08 08:54:21;;;;;;;;;;;;;;;;;;5053197;28;19935;-92
2022/08/08 08:56:47;;;;;;;;;;;;;;;;;;5050505;28;20292;-90
2022/08/08 08:59:12;;;;;;;;;;;;;;;;;;5053182;28;19924;-89
2022/08/08 09:01:43;;;;;;;;;;;;;;;;;;5053645;28;19948;-90
2022/08/08 09:04:11;;;;;;;;;;;;;;;;;;5053722;28;20296;-91
2022/08/08 09:06:38;;;;;;;;;;;;;;;;;;5052509;28;19917;-92
2022/08/08 09:09:12;;;;;;;;;;;;;;;;;;5053006;28;20004;-93
2022/08/08 09:11:41;;;;;;;;;;;;;;;;;;5053344;28;19951;-91
2022/08/08 09:14:07;;;;;;;;;;;;;;;;;;5053586;28;19924;-90
2022/08/08 09:16:32;;;;;;;;;;;;;;;;;;5053814;28;19917;-92
2022/08/08 09:18:58;;;;;;;;;;;;;;;;;;5048438;28;20406;-92
2022/08/08 09:21:23;;;;;;;;;;;;;;;;;;5039782;28;20011;-90
2022/08/08 09:23:49;;;;;;;;;;;;;;;;;;5043683;28;19921;-92
2022/08/08 09:26:20;;;;;;;;;;;;;;;;;;5053361;28;19925;-90
2022/08/08 09:28:45;;;;;;;;;;;;;;;;;;5052086;28;19932;-89
2022/08/08 09:31:29;;;;;;;;;;;;;;;;;;5052691;28;19917;-91
2022/08/08 09:33:55;;;;;;;;;;;;;;;;;;5052361;28;20284;-90
2022/08/08 09:36:21;;;;;;;;;;;;;;;;;;5053511;28;19923;-90
2022/08/08 09:38:51;;;;;;;;;;;;;;;;;;5053391;28;19970;-90
2022/08/08 09:41:22;;;;;;;;;;;;;;;;;;5052815;28;19958;-91
2022/08/08 09:43:48;;;;;;;;;;;;;;;;;;5055987;28;19917;-89
2022/08/08 09:46:15;;;;;;;;;;;;;;;;;;5060117;28;19917;-90
2022/08/08 09:48:44;;;;;;;;;;;;;;;;;;5057594;28;20367;-90
2022/08/08 09:51:13;;;;;;;;;;;;;;;;;;5057104;28;19917;-90
2022/08/08 09:53:48;;;;;;;;;;;;;;;;;;5056886;28;19940;-89
2022/08/08 09:56:15;;;;;;;;;;;;;;;;;;5056763;28;19967;-88
2022/08/08 09:58:47;;;;;;;;;;;;;;;;;;5054980;28;19918;-88
2022/08/08 10:01:13;;;;;;;;;;;;;;;;;;5057569;28;19960;-91
2022/08/08 10:03:39;;;;;;;;;;;;;;;;;;5055808;28;19921;-87
2022/08/08 10:06:14;;;;;;;;;;;;;;;;;;5055418;28;20499;-89
2022/08/08 10:08:46;;;;;;;;;;;;;;;;;;5056727;28;19924;-88
2022/08/08 10:33:13;;;;;;;;;;;;;;;;;;5039869;28;20008;-90
2022/08/08 10:35:38;;;;;;;;;;;;;;;;;;5036616;28;19929;-89
2022/08/08 10:38:04;;;;;;;;;;;;;;;;;;5035271;28;19917;-88
2022/08/08 10:40:31;;;;;;;;;;;;;;;;;;5054645;28;19917;-89
2022/08/08 10:42:57;;;;;;;;;;;;;;;;;;5056369;28;19925;-89
2022/08/08 10:45:23;;;;;;;;;;;;;;;;;;5038710;28;19960;-93
2022/08/08 10:47:56;;;;;;;;;;;;;;;;;;5037218;28;19917;-91
2022/08/08 10:50:29;;;;;;;;;;;;;;;;;;5037907;28;19986;-90
2022/08/08 10:52:59;;;;;;;;;;;;;;;;;;5034428;28;19952;-93
2022/08/08 10:55:24;;;;;;;;;;;;;;;;;;5033860;28;20376;-90
2022/08/08 10:57:50;;;;;;;;;;;;;;;;;;5034736;28;19917;-90
2022/08/08 11:00:25;;;;;;;;;;;;;;;;;;5036190;28;19917;-92
2022/08/08 11:02:51;;;;;;;;;;;;;;;;;;5036416;28;20063;-89
2022/08/08 11:05:17;;;;;;;;;;;;;;;;;;5038252;28;19959;-92
2022/08/08 11:07:46;;;;;;;;;;;;;;;;;;5035019;28;19913;-91
2022/08/08 11:10:13;;;;;;;;;;;;;;;;;;5033265;28;20380;-89
2022/08/08 11:12:52;;;;;;;;;;;;;;;;;;5035625;28;20276;-92
2022/08/08 11:15:18;;;;;;;;;;;;;;;;;;5035519;28;20284;-91
2022/08/08 11:17:44;;;;;;;;;;;;;;;;;;5033484;28;20016;-91
2022/08/08 11:20:16;;;;;;;;;;;;;;;;;;5035396;28;19968;-91
2022/08/08 11:22:42;;;;;;;;;;;;;;;;;;5034243;28;20360;-91
2022/08/08 11:31:14;;;;;;;;;;;;;;;;;;5035450;28;19963;-91
2022/08/08 11:33:40;;;;;;;;;;;;;;;;;;5033595;28;20360;-90
2022/08/08 11:36:05;;;;;;;;;;;;;;;;;;5035653;28;19917;-89
2022/08/08 11:42:01;;;;;;;;;;;;;;;;;;5035273;28;19923;-88
2022/08/08 11:47:29;;;;;;;;;;;;;;;;;;5035139;28;19935;-92
2022/08/08 11:49:56;;;;;;;;;;;;;;;;;;5033225;28;19917;-88
2022/08/08 11:52:24;;;;;;;;;;;;;;;;;;5031872;28;20363;-90
2022/08/08 11:54:49;;;;;;;;;;;;;;;;;;5033762;28;19917;-89
2022/08/08 11:57:41;;;;;;;;;;;;;;;;;;5032986;28;19987;-89
2022/08/08 12:00:07;;;;;;;;;;;;;;;;;;5029571;28;19994;-92
2022/08/08 12:02:43;;;;;;;;;;;;;;;;;;5032501;28;19917;-90
2022/08/08 12:05:10;;;;;;;;;;;;;;;;;;5032654;28;19917;-89
2022/08/08 12:10:48;;;;;;;;;;;;;;;;;;5034635;28;20454;-91
2022/08/08 12:13:15;;;;;;;;;;;;;;;;;;5032080;28;19959;-90
2022/08/08 12:19:05;;;;;;;;;;;;;;;;;;5034657;28;19979;-90
2022/08/08 12:21:31;;;;;;;;;;;;;;;;;;5034117;28;19930;-89
2022/08/08 12:24:04;;;;;;;;;;;;;;;;;;5033612;28;19928;-90
2022/08/08 12:26:37;;;;;;;;;;;;;;;;;;5033502;28;19957;-88
2022/08/08 12:29:24;;;;;;;;;;;;;;;;;;5033538;28;19917;-89
2022/08/08 12:32:02;;;;;;;;;;;;;;;;;;5034044;28;20007;-88
2022/08/08 12:34:38;;;;;;;;;;;;;;;;;;5034263;28;20027;-89
2022/08/08 12:37:05;;;;;;;;;;;;;;;;;;5034393;28;20357;-88
2022/08/08 12:39:31;;;;;;;;;;;;;;;;;;5032675;28;19967;-90
2022/08/08 12:41:57;;;;;;;;;;;;;;;;;;5033890;28;19921;-92
2022/08/08 12:44:28;;;;;;;;;;;;;;;;;;5021887;28;21351;-89
2022/08/08 12:46:55;;;;;;;;;;;;;;;;;;5018721;28;19980;-89
2022/08/08 12:49:25;;;;;;;;;;;;;;;;;;5021733;28;20012;-89
2022/08/08 12:51:52;;;;;;;;;;;;;;;;;;5021584;28;19921;-90
2022/08/08 12:54:21;;;;;;;;;;;;;;;;;;5032311;28;19965;-92
2022/08/08 12:56:47;;;;;;;;;;;;;;;;;;5024821;28;19927;-90
2022/08/08 12:59:23;;;;;;;;;;;;;;;;;;5025190;28;19925;-92
2022/08/08 13:01:50;;;;;;;;;;;;;;;;;;5039420;28;19921;-88
2022/08/08 13:04:17;;;;;;;;;;;;;;;;;;5024771;28;19961;-87
2022/08/08 13:06:53;;;;;;;;;;;;;;;;;;5026501;28;19925;-88
2022/08/08 13:09:47;;;;;;;;;;;;;;;;;;5033403;28;19921;-88
2022/08/08 13:12:34;;;;;;;;;;;;;;;;;;5015237;28;19952;-88
2022/08/08 13:15:01;;;;;;;;;;;;;;;;;;5043221;28;19944;-89
2022/08/08 13:17:29;;;;;;;;;;;;;;;;;;5053819;28;19917;-88
2022/08/08 13:19:54;;;;;;;;;;;;;;;;;;5035314;28;19924;-88
2022/08/08 13:22:20;;;;;;;;;;;;;;;;;;5033153;28;19921;-88
2022/08/08 13:24:46;;;;;;;;;;;;;;;;;;5029555;28;19921;-88
2022/08/08 13:27:13;;;;;;;;;;;;;;;;;;5022446;28;19929;-89
2022/08/08 13:29:52;;;;;;;;;;;;;;;;;;5029885;28;19921;-88
2022/08/08 13:32:18;;;;;;;;;;;;;;;;;;5028361;28;20134;-88
2022/08/08 13:34:47;;;;;;;;;;;;;;;;;;5026934;28;19924;-87
2022/08/08 13:37:12;;;;;;;;;;;;;;;;;;5027887;28;19921;-87
2022/08/08 13:39:38;;;;;;;;;;;;;;;;;;5027564;28;19927;-89
2022/08/08 13:42:04;;;;;;;;;;;;;;;;;;5023779;28;19921;-89
2022/08/08 13:44:30;;;;;;;;;;;;;;;;;;5019794;28;19936;-88
2022/08/08 13:47:02;;;;;;;;;;;;;;;;;;5037983;28;20008;-89
2022/08/08 13:49:31;;;;;;;;;;;;;;;;;;5030243;28;19921;-88
2022/08/08 13:52:04;;;;;;;;;;;;;;;;;;5033851;28;20378;-87
2022/08/08 13:54:31;;;;;;;;;;;;;;;;;;5029339;28;20007;-88
2022/08/08 13:57:06;;;;;;;;;;;;;;;;;;5030451;28;19936;-87
2022/08/08 13:59:35;;;;;;;;;;;;;;;;;;5034468;28;19929;-88
2022/08/08 14:02:01;;;;;;;;;;;;;;;;;;5026369;28;20446;-87
2022/08/08 14:04:27;;;;;;;;;;;;;;;;;;5031074;28;19944;-88
2022/08/08 14:06:57;;;;;;;;;;;;;;;;;;5029290;28;20364;-88
2022/08/08 14:09:29;;;;;;;;;;;;;;;;;;5027827;28;19924;-89
2022/08/08 14:11:56;;;;;;;;;;;;;;;;;;5033305;28;19924;-90
2022/08/08 14:14:22;;;;;;;;;;;;;;;;;;5029764;28;19929;-90
2022/08/08 14:16:48;;;;;;;;;;;;;;;;;;5024553;28;20400;-90
2022/08/08 14:19:14;;;;;;;;;;;;;;;;;;5016570;28;20380;-89
2022/08/08 14:21:40;;;;;;;;;;;;;;;;;;5021332;28;20000;-90
2022/08/08 14:24:06;;;;;;;;;;;;;;;;;;5034886;28;19956;-89
2022/08/08 14:26:31;;;;;;;;;;;;;;;;;;5034828;28;19953;-90
2022/08/08 14:28:57;;;;;;;;;;;;;;;;;;5038509;28;19939;-89
2022/08/08 14:31:24;;;;;;;;;;;;;;;;;;5045387;28;19912;-89
2022/08/08 14:33:53;;;;;;;;;;;;;;;;;;5051681;28;19922;-89
2022/08/08 14:36:36;;;;;;;;;;;;;;;;;;5041249;28;20003;-90
2022/08/08 14:39:02;;;;;;;;;;;;;;;;;;5034218;28;19983;-89
2022/08/08 14:41:28;;;;;;;;;;;;;;;;;;5031919;28;19918;-88
2022/08/08 14:43:54;;;;;;;;;;;;;;;;;;5027942;28;19963;-88
2022/08/08 14:46:27;;;;;;;;;;;;;;;;;;5021326;28;19921;-88
2022/08/08 14:48:54;;;;;;;;;;;;;;;;;;5035726;28;20240;-90
2022/08/08 14:51:20;;;;;;;;;;;;;;;;;;5034592;28;19984;-89
2022/08/08 14:53:45;;;;;;;;;;;;;;;;;;5034612;28;19921;-89
2022/08/08 14:56:12;;;;;;;;;;;;;;;;;;5034796;28;20368;-89
2022/08/08 14:58:37;;;;;;;;;;;;;;;;;;5035639;28;19921;-88
2022/08/08 15:01:03;;;;;;;;;;;;;;;;;;5035764;28;20047;-88
2022/08/08 15:03:29;;;;;;;;;;;;;;;;;;5034475;28;19962;-89
2022/08/08 15:05:54;;;;;;;;;;;;;;;;;;5034348;28;20428;-88
2022/08/08 15:08:20;;;;;;;;;;;;;;;;;;5015892;28;19921;-88
2022/08/08 15:10:45;;;;;;;;;;;;;;;;;;5015635;28;19968;-87
2022/08/08 15:13:14;;;;;;;;;;;;;;;;;;5013918;28;20024;-88
2022/08/08 15:15:40;;;;;;;;;;;;;;;;;;5015715;28;20004;-88
2022/08/08 15:18:05;;;;;;;;;;;;;;;;;;5014289;28;19953;-87
2022/08/08 15:20:31;;;;;;;;;;;;;;;;;;5015450;28;19917;-88
2022/08/08 15:22:58;;;;;;;;;;;;;;;;;;5015393;28;19918;-89
2022/08/08 15:25:23;;;;;;;;;;;;;;;;;;5030355;28;19922;-89
2022/08/08 15:27:49;;;;;;;;;;;;;;;;;;5023553;28;20258;-88
2022/08/08 15:30:14;;;;;;;;;;;;;;;;;;5034113;28;19917;-88
2022/08/08 15:32:40;;;;;;;;;;;;;;;;;;5035137;28;19932;-89
2022/08/08 15:35:05;;;;;;;;;;;;;;;;;;5035024;28;19917;-89
2022/08/08 15:37:31;;;;;;;;;;;;;;;;;;5033630;28;19921;-90
2022/08/08 15:39:56;;;;;;;;;;;;;;;;;;5033838;28;20070;-89
2022/08/08 15:42:22;;;;;;;;;;;;;;;;;;5035220;28;19917;-91
2022/08/08 15:44:47;;;;;;;;;;;;;;;;;;5033540;28;19960;-92
2022/08/08 15:47:13;;;;;;;;;;;;;;;;;;5033977;28;19917;-91
2022/08/08 15:49:42;;;;;;;;;;;;;;;;;;5034724;28;19917;-90
2022/08/08 15:52:11;;;;;;;;;;;;;;;;;;5033388;28;19917;-89
2022/08/08 15:54:37;;;;;;;;;;;;;;;;;;5033246;28;19917;-89
2022/08/08 15:57:02;;;;;;;;;;;;;;;;;;5034618;28;19999;-91
2022/08/08 15:59:28;;;;;;;;;;;;;;;;;;5034551;28;19924;-88
2022/08/08 16:01:54;;;;;;;;;;;;;;;;;;5034657;28;19924;-90
2022/08/08 16:04:22;;;;;;;;;;;;;;;;;;5034634;28;19918;-91
2022/08/08 16:06:48;;;;;;;;;;;;;;;;;;5034525;28;19917;-91
2022/08/08 16:09:14;;;;;;;;;;;;;;;;;;5034098;28;19917;-89
2022/08/08 16:11:39;;;;;;;;;;;;;;;;;;5036257;28;20347;-91
2022/08/08 16:14:05;;;;;;;;;;;;;;;;;;5033858;28;20335;-90
2022/08/08 16:16:30;;;;;;;;;;;;;;;;;;5034104;28;19943;-89
2022/08/08 16:18:56;;;;;;;;;;;;;;;;;;5032904;28;19970;-89
2022/08/08 16:21:21;;;;;;;;;;;;;;;;;;5033978;28;19917;-89
2022/08/08 16:23:46;;;;;;;;;;;;;;;;;;5034120;28;19917;-89
2022/08/08 16:26:12;;;;;;;;;;;;;;;;;;5033969;28;20292;-88
2022/08/08 16:28:37;;;;;;;;;;;;;;;;;;5033828;28;19917;-90
2022/08/08 16:31:03;;;;;;;;;;;;;;;;;;5032873;28;20014;-91
2022/08/08 16:33:29;;;;;;;;;;;;;;;;;;5033864;28;19917;-89
2022/08/08 16:35:55;;;;;;;;;;;;;;;;;;5034019;28;19924;-89
2022/08/08 16:38:38;;;;;;;;;;;;;;;;;;5032807;28;19947;-89
2022/08/08 16:41:03;;;;;;;;;;;;;;;;;;5032565;28;20383;-87
2022/08/08 16:43:28;;;;;;;;;;;;;;;;;;5033851;28;19917;-89
2022/08/08 16:45:54;;;;;;;;;;;;;;;;;;5033843;28;20283;-88
2022/08/08 16:48:19;;;;;;;;;;;;;;;;;;5032887;28;19941;-88
2022/08/08 16:50:45;;;;;;;;;;;;;;;;;;5034766;28;19919;-88
2022/08/08 16:53:10;;;;;;;;;;;;;;;;;;5037020;28;19929;-89
2022/08/08 16:55:36;;;;;;;;;;;;;;;;;;5036171;28;19939;-90
2022/08/08 16:58:01;;;;;;;;;;;;;;;;;;5034848;28;19917;-90
2022/08/08 17:00:27;;;;;;;;;;;;;;;;;;5035014;28;19924;-89
2022/08/08 17:02:52;;;;;;;;;;;;;;;;;;5034680;28;19968;-88
2022/08/08 17:05:18;;;;;;;;;;;;;;;;;;5033726;28;19959;-87
2022/08/08 17:07:43;;;;;;;;;;;;;;;;;;5033488;28;19917;-88
2022/08/08 17:10:09;;;;;;;;;;;;;;;;;;5033335;28;19917;-88
2022/08/08 17:12:35;;;;;;;;;;;;;;;;;;5031827;28;19924;-89
2022/08/08 17:15:00;;;;;;;;;;;;;;;;;;5034169;28;19927;-88
2022/08/08 17:17:25;;;;;;;;;;;;;;;;;;5034480;28;19920;-88
2022/08/08 17:19:51;;;;;;;;;;;;;;;;;;5032130;28;19972;-87
2022/08/08 17:22:16;;;;;;;;;;;;;;;;;;5033141;28;19913;-87
2022/08/08 17:24:42;;;;;;;;;;;;;;;;;;5031684;28;19921;-88
2022/08/08 17:27:08;;;;;;;;;;;;;;;;;;5033373;28;19960;-87
2022/08/08 17:29:34;;;;;;;;;;;;;;;;;;5033617;28;20288;-87
2022/08/08 17:31:59;;;;;;;;;;;;;;;;;;5034647;28;20008;-88
2022/08/08 17:34:25;;;;;;;;;;;;;;;;;;5032005;28;20415;-88
2022/08/08 17:36:50;;;;;;;;;;;;;;;;;;5033209;28;19925;-88
2022/08/08 17:39:15;;;;;;;;;;;;;;;;;;5033338;28;19917;-89
2022/08/08 17:41:41;;;;;;;;;;;;;;;;;;5033319;28;19940;-87
2022/08/08 17:44:07;;;;;;;;;;;;;;;;;;5033193;28;19917;-87